createdAt,value
2018-08-06T00:00:14.427Z,97.80
2018-08-06T00:02:42.263Z,98.00
2018-08-06T00:05:10.148Z,98.20
2018-08-06T00:07:38.048Z,98.40
2018-08-06T00:10:09.950Z,98.50
2018-08-06T00:12:37.836Z,98.50
2018-08-06T00:15:07.040Z,98.60
2018-08-06T00:17:34.895Z,98.90
2018-08-06T00:20:02.646Z,99.10
2018-08-06T00:22:30.403Z,99.20
2018-08-06T00:24:58.152Z,99.00
2018-08-06T00:27:26.306Z,99.10
2018-08-06T00:29:53.966Z,99.50
2018-08-06T00:32:21.931Z,98.90
2018-08-06T00:34:49.620Z,98.90
2018-08-06T00:37:18.548Z,99.20
2018-08-06T00:39:46.454Z,99.50
2018-08-06T00:42:16.980Z,99.70
2018-08-06T00:44:44.674Z,99.90
2018-08-06T00:47:12.450Z,99.90
2018-08-06T00:49:40.241Z,99.90
2018-08-06T00:52:08.525Z,99.90
2018-08-06T00:54:36.448Z,99.90
2018-08-06T00:57:04.324Z,99.90
2018-08-06T00:59:32.116Z,99.90
2018-08-06T01:04:27.684Z,99.90
2018-08-06T01:06:56.445Z,99.90
2018-08-06T01:09:24.220Z,99.90
2018-08-06T01:11:51.992Z,99.90
2018-08-06T01:14:19.795Z,99.90
2018-08-06T01:16:47.455Z,99.90
2018-08-06T01:19:15.246Z,99.90
2018-08-06T01:21:43.088Z,99.90
2018-08-06T01:24:10.898Z,99.90
2018-08-06T01:26:38.825Z,99.90
2018-08-06T01:29:06.721Z,99.90
2018-08-06T01:31:34.491Z,99.90
2018-08-06T01:34:02.331Z,99.90
2018-08-06T01:36:30.082Z,99.90
2018-08-06T01:39:02.709Z,99.90
2018-08-06T01:41:30.496Z,99.90
2018-08-06T01:46:25.891Z,99.90
2018-08-06T01:48:53.773Z,99.90
2018-08-06T01:51:21.578Z,99.90
2018-08-06T01:53:49.307Z,99.90
2018-08-06T01:56:17.091Z,99.90
2018-08-06T01:58:44.803Z,99.90
2018-08-06T02:01:12.633Z,99.90
2018-08-06T02:03:40.395Z,99.90
2018-08-06T02:06:08.172Z,99.90
2018-08-06T02:08:35.895Z,99.90
2018-08-06T02:11:03.907Z,99.90
2018-08-06T02:13:31.703Z,99.90
2018-08-06T02:15:59.508Z,99.90
2018-08-06T02:18:27.283Z,99.90
2018-08-06T02:20:55.031Z,99.90
2018-08-06T02:23:22.866Z,99.90
2018-08-06T02:25:50.771Z,99.90
2018-08-06T02:28:18.696Z,99.90
2018-08-06T02:30:46.459Z,99.90
2018-08-06T02:33:14.199Z,99.90
2018-08-06T02:35:41.974Z,99.90
2018-08-06T02:38:09.802Z,99.90
2018-08-06T02:40:37.779Z,99.90
2018-08-06T02:43:05.663Z,99.90
2018-08-06T02:45:33.474Z,99.90
2018-08-06T02:48:01.264Z,99.90
2018-08-06T02:50:28.995Z,99.90
2018-08-06T02:52:58.751Z,99.90
2018-08-06T02:55:26.472Z,99.90
2018-08-06T02:57:54.252Z,99.90
2018-08-06T03:00:22.250Z,99.90
2018-08-06T03:02:50.021Z,99.90
2018-08-06T03:05:18.898Z,99.90
2018-08-06T03:07:47.151Z,99.90
2018-08-06T03:10:15.029Z,99.90
2018-08-06T03:12:44.088Z,99.90
2018-08-06T03:15:12.202Z,99.90
2018-08-06T03:17:40.637Z,99.90
2018-08-06T03:20:09.930Z,99.90
2018-08-06T03:22:38.418Z,99.90
2018-08-06T03:25:07.899Z,99.90
2018-08-06T03:27:35.763Z,99.90
2018-08-06T03:30:05.200Z,99.90
2018-08-06T03:32:32.967Z,99.90
2018-08-06T03:35:01.005Z,99.90
2018-08-06T03:37:28.839Z,99.90
2018-08-06T03:39:56.605Z,99.90
2018-08-06T03:42:24.485Z,99.90
2018-08-06T03:44:52.221Z,99.90
2018-08-06T03:47:20.139Z,99.90
2018-08-06T03:49:47.859Z,99.90
2018-08-06T03:52:19.784Z,99.90
2018-08-06T03:54:47.581Z,99.90
2018-08-06T03:57:15.334Z,99.90
2018-08-06T03:59:43.089Z,99.90
2018-08-06T04:02:10.911Z,99.90
2018-08-06T04:04:38.634Z,99.90
2018-08-06T04:07:06.310Z,99.90
2018-08-06T04:09:34.074Z,99.90
2018-08-06T04:12:01.867Z,99.90
2018-08-06T04:14:29.816Z,99.90
2018-08-06T04:16:57.544Z,99.90
2018-08-06T04:19:25.317Z,99.90
2018-08-06T04:21:53.138Z,99.90
2018-08-06T04:24:20.940Z,99.90
2018-08-06T04:26:48.631Z,99.90
2018-08-06T04:29:16.475Z,99.90
2018-08-06T04:34:11.824Z,99.90
2018-08-06T04:36:39.644Z,99.90
2018-08-06T04:39:07.498Z,99.90
2018-08-06T04:41:35.254Z,99.90
2018-08-06T04:44:03.146Z,99.90
2018-08-06T04:46:30.849Z,99.90
2018-08-06T04:48:58.613Z,99.90
2018-08-06T04:51:26.592Z,99.90
2018-08-06T04:53:54.316Z,99.90
2018-08-06T04:56:22.170Z,99.90
2018-08-06T04:58:50.150Z,99.90
2018-08-06T05:01:17.857Z,99.90
2018-08-06T05:03:45.775Z,99.90
2018-08-06T05:06:13.822Z,99.90
2018-08-06T05:08:41.523Z,99.90
2018-08-06T05:11:09.321Z,99.90
2018-08-06T05:13:37.122Z,99.90
2018-08-06T05:16:04.779Z,99.90
2018-08-06T05:18:32.748Z,99.90
2018-08-06T05:21:00.462Z,99.90
2018-08-06T05:24:04.879Z,99.90
2018-08-06T05:26:32.680Z,99.90
2018-08-06T05:29:00.443Z,99.90
2018-08-06T05:31:28.697Z,99.90
2018-08-06T05:33:57.506Z,99.90
2018-08-06T05:36:25.241Z,99.90
2018-08-06T05:38:54.179Z,99.90
2018-08-06T05:41:23.311Z,99.90
2018-08-06T05:43:51.859Z,99.90
2018-08-06T05:46:19.715Z,99.90
2018-08-06T05:48:47.519Z,99.90
2018-08-06T05:51:15.331Z,99.90
2018-08-06T05:53:43.070Z,99.90
2018-08-06T05:56:11.265Z,99.90
2018-08-06T05:58:40.203Z,99.90
2018-08-06T06:01:08.014Z,99.90
2018-08-06T06:03:35.999Z,99.90
2018-08-06T06:06:04.371Z,99.90
2018-08-06T06:08:32.195Z,99.90
2018-08-06T06:11:00.132Z,99.90
2018-08-06T06:13:27.835Z,99.90
2018-08-06T06:15:55.804Z,99.90
2018-08-06T06:18:23.569Z,99.90
2018-08-06T06:20:51.548Z,99.90
2018-08-06T06:23:19.270Z,99.90
2018-08-06T06:28:14.731Z,99.90
2018-08-06T06:30:42.525Z,99.90
2018-08-06T06:33:10.219Z,99.90
2018-08-06T06:35:38.235Z,99.90
2018-08-06T06:40:33.762Z,99.90
2018-08-06T06:43:01.724Z,99.90
2018-08-06T06:45:29.601Z,99.90
2018-08-06T06:47:57.509Z,99.90
2018-08-06T06:50:25.354Z,99.90
2018-08-06T06:53:04.812Z,99.90
2018-08-06T06:55:37.795Z,99.90
2018-08-06T06:58:05.780Z,99.90
2018-08-06T07:00:45.362Z,99.90
2018-08-06T07:03:18.580Z,98.30
2018-08-06T07:05:46.320Z,98.20
2018-08-06T07:08:14.180Z,96.30
2018-08-06T07:10:42.101Z,96.50
2018-08-06T07:13:10.250Z,96.40
2018-08-06T07:15:38.052Z,94.60
2018-08-06T07:18:06.355Z,94.20
2018-08-06T07:23:01.695Z,91.80
2018-08-06T07:25:29.542Z,90.20
2018-08-06T07:27:57.394Z,89.70
2018-08-06T07:30:25.315Z,89.60
2018-08-06T07:32:53.123Z,84.80
2018-08-06T07:35:27.271Z,84.10
2018-08-06T07:37:57.051Z,83.40
2018-08-06T07:40:24.807Z,83.20
2018-08-06T07:42:52.709Z,83.10
2018-08-06T07:45:20.849Z,84.40
2018-08-06T07:47:49.809Z,77.60
2018-08-06T07:50:19.010Z,74.60
2018-08-06T07:52:47.210Z,71.90
2018-08-06T07:55:15.272Z,71.10
2018-08-06T07:57:43.203Z,69.60
2018-08-06T08:00:13.083Z,70.30
2018-08-06T08:02:41.182Z,70.90
2018-08-06T08:05:11.251Z,69.00
2018-08-06T08:07:39.327Z,68.80
2018-08-06T08:10:12.885Z,67.90
2018-08-06T08:15:14.591Z,65.70
2018-08-06T08:17:43.238Z,66.20
2018-08-06T08:20:12.620Z,66.80
2018-08-06T08:22:40.618Z,64.30
2018-08-06T08:25:12.119Z,61.20
2018-08-06T08:27:40.106Z,60.10
2018-08-06T08:30:09.217Z,59.30
2018-08-06T08:32:37.062Z,58.60
2018-08-06T08:35:05.036Z,58.70
2018-08-06T08:37:33.531Z,59.10
2018-08-06T08:40:01.629Z,58.80
2018-08-06T08:42:29.640Z,59.40
2018-08-06T08:44:57.463Z,59.70
2018-08-06T08:47:25.263Z,56.30
2018-08-06T08:49:53.084Z,55.80
2018-08-06T08:52:20.985Z,59.00
2018-08-06T08:54:48.658Z,56.60
2018-08-06T08:57:16.712Z,55.90
2018-08-06T09:04:39.803Z,51.00
2018-08-06T09:07:07.497Z,51.90
2018-08-06T09:09:35.215Z,54.10
2018-08-06T09:12:02.943Z,51.90
2018-08-06T09:14:30.681Z,52.60
2018-08-06T09:16:58.423Z,51.80
2018-08-06T09:19:26.266Z,51.30
2018-08-06T09:21:53.879Z,52.50
2018-08-06T09:24:21.640Z,52.60
2018-08-06T09:26:49.407Z,51.90
2018-08-06T09:29:17.206Z,51.00
2018-08-06T09:31:45.005Z,50.60
2018-08-06T09:36:40.455Z,50.40
2018-08-06T09:39:10.347Z,48.30
2018-08-06T09:41:38.005Z,50.20
2018-08-06T09:44:06.237Z,48.30
2018-08-06T09:46:34.328Z,47.50
2018-08-06T09:49:02.248Z,45.30
2018-08-06T09:51:29.938Z,45.00
2018-08-06T09:53:57.647Z,45.10
2018-08-06T09:56:25.421Z,46.90
2018-08-06T10:01:26.529Z,44.90
2018-08-06T10:03:54.202Z,46.20
2018-08-06T10:06:22.067Z,46.10
2018-08-06T10:08:49.844Z,45.70
2018-08-06T10:11:17.659Z,44.80
2018-08-06T10:13:45.755Z,46.60
2018-08-06T10:16:13.599Z,42.00
2018-08-06T10:18:41.471Z,41.90
2018-08-06T10:21:09.183Z,42.70
2018-08-06T10:23:37.091Z,42.30
2018-08-06T10:26:04.957Z,41.50
2018-08-06T10:28:32.752Z,39.90
2018-08-06T10:31:00.503Z,38.30
2018-08-06T10:33:28.264Z,38.30
2018-08-06T10:35:56.073Z,39.00
2018-08-06T10:38:23.934Z,37.50
2018-08-06T10:40:51.709Z,38.30
2018-08-06T10:43:19.475Z,38.40
2018-08-06T10:45:47.172Z,38.20
2018-08-06T10:48:14.851Z,37.70
2018-08-06T10:50:42.675Z,37.50
2018-08-06T10:53:10.383Z,35.90
2018-08-06T10:55:38.084Z,35.30
2018-08-06T10:58:07.811Z,36.30
2018-08-06T11:00:36.020Z,33.90
2018-08-06T11:03:03.856Z,33.70
2018-08-06T11:05:31.679Z,34.70
2018-08-06T11:07:59.460Z,32.80
2018-08-06T11:10:27.186Z,36.90
2018-08-06T11:12:54.947Z,33.20
2018-08-06T11:15:25.011Z,33.80
2018-08-06T11:17:52.743Z,30.10
2018-08-06T11:20:21.127Z,31.50
2018-08-06T11:22:48.957Z,34.10
2018-08-06T11:25:18.735Z,29.70
2018-08-06T11:27:46.702Z,30.10
2018-08-06T11:30:17.362Z,32.50
2018-08-06T11:32:45.900Z,31.30
2018-08-06T11:35:14.295Z,32.30
2018-08-06T11:37:42.372Z,31.20
2018-08-06T11:40:11.220Z,29.80
2018-08-06T11:42:39.659Z,31.30
2018-08-06T11:45:09.377Z,29.40
2018-08-06T11:47:37.147Z,30.00
2018-08-06T11:50:05.500Z,29.90
2018-08-06T11:52:33.252Z,29.70
2018-08-06T11:55:01.348Z,30.30
2018-08-06T11:57:29.090Z,30.30
2018-08-06T11:59:56.991Z,30.50
2018-08-06T12:02:25.066Z,31.30
2018-08-06T12:04:52.735Z,32.70
2018-08-06T12:07:20.472Z,31.30
2018-08-06T12:09:48.194Z,30.60
2018-08-06T12:12:15.991Z,31.50
2018-08-06T12:14:43.827Z,31.60
2018-08-06T12:17:11.551Z,31.80
2018-08-06T12:19:39.263Z,34.60
2018-08-06T12:22:07.025Z,34.40
2018-08-06T12:24:34.731Z,34.40
2018-08-06T12:27:02.572Z,30.60
2018-08-06T12:29:30.332Z,30.60
2018-08-06T12:31:58.551Z,30.90
2018-08-06T12:34:26.482Z,30.60
2018-08-06T12:36:54.408Z,32.40
2018-08-06T12:39:22.198Z,33.60
2018-08-06T12:41:49.977Z,31.30
2018-08-06T12:44:17.880Z,29.70
2018-08-06T12:46:45.723Z,29.90
2018-08-06T12:49:13.479Z,29.80
2018-08-06T12:51:41.167Z,29.20
2018-08-06T12:56:37.189Z,30.50
2018-08-06T12:59:04.911Z,30.20
2018-08-06T13:01:32.712Z,30.60
2018-08-06T13:04:00.527Z,31.00
2018-08-06T13:06:28.482Z,32.60
2018-08-06T13:08:56.311Z,29.80
2018-08-06T13:11:24.197Z,30.20
2018-08-06T13:13:52.088Z,30.00
2018-08-06T13:16:19.796Z,29.60
2018-08-06T13:18:47.614Z,29.10
2018-08-06T13:21:15.532Z,28.70
2018-08-06T13:23:43.333Z,29.70
2018-08-06T13:26:11.143Z,30.40
2018-08-06T13:28:38.980Z,29.60
2018-08-06T13:31:07.272Z,30.10
2018-08-06T13:33:35.176Z,29.80
2018-08-06T13:36:03.067Z,29.80
2018-08-06T13:38:30.736Z,30.00
2018-08-06T13:43:26.123Z,30.10
2018-08-06T13:45:54.002Z,30.30
2018-08-06T13:48:21.752Z,30.00
2018-08-06T13:50:49.550Z,31.20
2018-08-06T13:53:17.323Z,29.70
2018-08-06T13:55:45.198Z,29.90
2018-08-06T13:58:13.393Z,31.80
2018-08-06T14:00:41.216Z,29.90
2018-08-06T14:03:09.271Z,28.70
2018-08-06T14:05:36.928Z,29.50
2018-08-06T14:08:04.710Z,29.00
2018-08-06T14:10:32.566Z,29.50
2018-08-06T14:13:00.442Z,29.50
2018-08-06T14:15:28.251Z,29.80
2018-08-06T14:17:56.086Z,31.20
2018-08-06T14:22:51.603Z,31.20
2018-08-06T14:25:19.442Z,30.90
2018-08-06T14:27:47.135Z,31.50
2018-08-06T14:30:16.038Z,29.80
2018-08-06T14:32:44.400Z,29.80
2018-08-06T14:35:12.593Z,31.00
2018-08-06T14:37:40.432Z,31.90
2018-08-06T14:40:11.663Z,32.00
2018-08-06T14:42:39.508Z,30.50
2018-08-06T14:45:08.103Z,31.20
2018-08-06T14:47:35.879Z,29.80
2018-08-06T14:50:08.372Z,29.40
2018-08-06T14:52:36.211Z,29.90
2018-08-06T14:55:04.459Z,30.10
2018-08-06T14:57:35.349Z,30.00
2018-08-06T15:00:10.054Z,29.90
2018-08-06T15:02:40.076Z,31.00
2018-08-06T15:05:07.888Z,32.00
2018-08-06T15:07:35.696Z,30.90
2018-08-06T15:10:04.800Z,31.50
2018-08-06T15:12:32.634Z,30.80
2018-08-06T15:15:00.411Z,30.80
2018-08-06T15:17:28.233Z,30.40
2018-08-06T15:19:56.150Z,31.50
2018-08-06T15:22:23.946Z,32.00
2018-08-06T15:24:51.681Z,33.70
2018-08-06T15:27:19.410Z,32.30
2018-08-06T15:29:47.145Z,34.20
2018-08-06T15:32:14.807Z,33.00
2018-08-06T15:37:10.471Z,32.70
2018-08-06T15:39:38.355Z,33.60
2018-08-06T15:42:08.087Z,33.90
2018-08-06T15:44:35.864Z,35.60
2018-08-06T15:47:03.680Z,35.90
2018-08-06T15:49:31.361Z,36.20
2018-08-06T15:51:59.156Z,35.00
2018-08-06T15:54:30.815Z,37.20
2018-08-06T15:56:58.696Z,38.30
2018-08-06T16:01:54.608Z,36.90
2018-08-06T16:04:22.582Z,35.80
2018-08-06T16:06:50.356Z,36.10
2018-08-06T16:09:18.107Z,37.80
2018-08-06T16:11:49.300Z,35.80
2018-08-06T16:14:17.359Z,36.20
2018-08-06T16:16:45.125Z,37.90
2018-08-06T16:19:13.432Z,38.30
2018-08-06T16:21:41.279Z,37.10
2018-08-06T16:24:09.092Z,36.60
2018-08-06T16:26:36.875Z,37.00
2018-08-06T16:29:04.920Z,37.20
2018-08-06T16:31:32.664Z,37.40
2018-08-06T16:34:00.422Z,36.80
2018-08-06T16:36:28.366Z,37.50
2018-08-06T16:38:56.222Z,37.50
2018-08-06T16:41:24.211Z,37.60
2018-08-06T16:46:19.577Z,38.90
2018-08-06T16:48:47.453Z,38.30
2018-08-06T16:51:15.188Z,38.30
2018-08-06T16:53:42.977Z,38.70
2018-08-06T16:56:10.644Z,39.00
2018-08-06T16:58:38.647Z,38.60
2018-08-06T17:03:34.126Z,39.40
2018-08-06T17:06:01.878Z,39.20
2018-08-06T17:08:29.793Z,39.50
2018-08-06T17:10:57.501Z,39.70
2018-08-06T17:13:25.280Z,39.80
2018-08-06T17:15:53.081Z,39.90
2018-08-06T17:18:20.940Z,40.10
2018-08-06T17:20:49.374Z,40.10
2018-08-06T17:23:17.274Z,40.40
2018-08-06T17:25:45.271Z,40.40
2018-08-06T17:28:12.983Z,40.30
2018-08-06T17:30:40.731Z,40.80
2018-08-06T17:33:08.494Z,40.80
2018-08-06T17:35:36.208Z,40.90
2018-08-06T17:38:04.439Z,41.30
2018-08-06T17:40:32.203Z,41.70
2018-08-06T17:43:00.128Z,41.70
2018-08-06T17:45:27.930Z,41.70
2018-08-06T17:47:55.739Z,41.90
2018-08-06T17:50:23.620Z,41.70
2018-08-06T17:52:52.742Z,42.20
2018-08-06T17:55:21.503Z,42.30
2018-08-06T17:57:50.253Z,42.60
2018-08-06T18:00:18.527Z,42.90
2018-08-06T18:02:46.652Z,43.60
2018-08-06T18:05:15.441Z,43.30
2018-08-06T18:07:43.848Z,43.40
2018-08-06T18:10:14.127Z,44.00
2018-08-06T18:12:42.637Z,43.70
2018-08-06T18:15:10.522Z,43.70
2018-08-06T18:17:38.529Z,43.90
2018-08-06T18:20:09.263Z,43.90
2018-08-06T18:22:37.038Z,44.00
2018-08-06T18:25:06.959Z,44.40
2018-08-06T18:27:34.715Z,44.70
2018-08-06T18:30:02.870Z,44.80
2018-08-06T18:32:30.681Z,44.90
2018-08-06T18:34:58.376Z,44.90
2018-08-06T18:37:26.039Z,45.30
2018-08-06T18:39:53.554Z,45.50
2018-08-06T18:42:21.153Z,45.50
2018-08-06T18:44:48.735Z,45.50
2018-08-06T18:47:16.379Z,46.00
2018-08-06T18:49:43.976Z,45.70
2018-08-06T18:52:11.624Z,46.00
2018-08-06T18:54:39.126Z,46.10
2018-08-06T18:57:15.106Z,46.30
2018-08-06T18:59:43.535Z,46.60
2018-08-06T19:02:11.494Z,46.70
2018-08-06T19:04:39.167Z,46.90
2018-08-06T19:07:07.250Z,46.90
2018-08-06T19:09:34.913Z,47.20
2018-08-06T19:12:08.337Z,47.40
2018-08-06T19:14:35.930Z,47.40
2018-08-06T19:17:03.567Z,47.60
2018-08-06T19:19:33.209Z,47.90
2018-08-06T19:22:01.823Z,47.70
2018-08-06T19:24:35.161Z,47.40
2018-08-06T19:27:02.746Z,47.70
2018-08-06T19:29:30.338Z,47.90
2018-08-06T19:31:57.878Z,48.20
2018-08-06T19:34:25.470Z,48.40
2018-08-06T19:36:58.844Z,48.30
2018-08-06T19:39:26.617Z,48.70
2018-08-06T19:41:54.223Z,48.90
2018-08-06T19:44:21.803Z,49.00
2018-08-06T19:46:49.307Z,49.30
2018-08-06T19:49:22.747Z,49.20
2018-08-06T19:51:50.274Z,49.10
2018-08-06T19:54:17.807Z,49.20
2018-08-06T19:56:45.394Z,49.30
2018-08-06T19:59:13.169Z,49.50
2018-08-06T20:01:40.843Z,49.50
2018-08-06T20:04:08.570Z,49.40
2018-08-06T20:06:36.176Z,49.70
2018-08-06T20:09:07.487Z,49.80
2018-08-06T20:11:35.092Z,49.80
2018-08-06T20:14:02.779Z,49.90
2018-08-06T20:16:30.387Z,50.50
2018-08-06T20:18:57.906Z,50.60
2018-08-06T20:21:25.468Z,51.30
2018-08-06T20:23:52.983Z,51.90
2018-08-06T20:26:20.548Z,52.40
2018-08-06T20:28:48.139Z,53.20
2018-08-06T20:33:43.331Z,53.20
2018-08-06T20:36:10.901Z,53.40
2018-08-06T20:38:38.490Z,53.30
2018-08-06T20:41:06.058Z,54.10
2018-08-06T20:43:33.643Z,54.80
2018-08-06T20:46:01.172Z,54.90
2018-08-06T20:48:28.811Z,54.30
2018-08-06T20:50:56.398Z,53.60
2018-08-06T20:53:23.990Z,53.20
2018-08-06T20:55:51.644Z,53.20
2018-08-06T20:58:19.206Z,53.20
2018-08-06T21:00:46.742Z,53.30
2018-08-06T21:03:14.783Z,53.50
2018-08-06T21:05:42.275Z,53.60
2018-08-06T21:08:09.848Z,53.30
2018-08-06T21:10:37.490Z,53.00
2018-08-06T21:13:05.323Z,53.60
2018-08-06T21:15:32.893Z,54.20
2018-08-06T21:18:00.504Z,54.90
2018-08-06T21:20:28.082Z,54.90
2018-08-06T21:22:55.620Z,54.80
2018-08-06T21:25:23.258Z,54.80
2018-08-06T21:27:50.834Z,54.50
2018-08-06T21:30:20.744Z,54.50
2018-08-06T21:32:50.483Z,54.30
2018-08-06T21:35:18.945Z,54.40
2018-08-06T21:37:47.824Z,54.40
2018-08-06T21:40:15.637Z,54.50
2018-08-06T21:42:43.192Z,54.40
2018-08-06T21:45:10.757Z,54.40
2018-08-06T21:47:38.312Z,54.50
2018-08-06T21:50:06.517Z,54.50
2018-08-06T21:52:34.086Z,54.70
2018-08-06T21:55:01.659Z,54.90
2018-08-06T21:57:29.361Z,55.00
2018-08-06T21:59:57.070Z,55.30
2018-08-06T22:02:24.864Z,55.90
2018-08-06T22:04:52.613Z,55.90
2018-08-06T22:09:48.133Z,56.30
2018-08-06T22:12:16.015Z,56.40
2018-08-06T22:14:43.995Z,57.70
2018-08-06T22:17:11.808Z,57.80
2018-08-06T22:19:39.602Z,57.40
2018-08-06T22:22:07.655Z,57.30
2018-08-06T22:24:35.510Z,57.30
2018-08-06T22:27:03.279Z,57.90
2018-08-06T22:29:31.058Z,58.20
2018-08-06T22:31:58.815Z,58.40
2018-08-06T22:34:26.630Z,59.40
2018-08-06T22:39:22.100Z,59.90
2018-08-06T22:41:50.014Z,61.50
2018-08-06T22:44:17.881Z,60.80
2018-08-06T22:46:45.736Z,60.70
2018-08-06T22:49:13.566Z,61.60
2018-08-06T22:51:41.340Z,62.60
2018-08-06T22:54:09.286Z,62.60
2018-08-06T22:56:36.944Z,63.60
2018-08-06T23:01:32.465Z,65.50
2018-08-06T23:04:00.301Z,66.20
2018-08-06T23:06:28.155Z,67.30
2018-08-06T23:08:56.386Z,68.40
2018-08-06T23:11:24.063Z,68.50
2018-08-06T23:13:51.971Z,69.00
2018-08-06T23:16:19.917Z,70.50
2018-08-06T23:18:47.695Z,71.30
2018-08-06T23:21:15.975Z,71.80
2018-08-06T23:23:43.828Z,72.90
2018-08-06T23:26:11.710Z,73.30
2018-08-06T23:28:39.510Z,73.00
2018-08-06T23:31:07.345Z,73.80
2018-08-06T23:33:35.118Z,75.00
2018-08-06T23:36:03.020Z,75.00
2018-08-06T23:38:30.818Z,74.60
2018-08-06T23:40:59.047Z,75.60
2018-08-06T23:43:26.906Z,74.90
2018-08-06T23:45:54.746Z,75.00
2018-08-06T23:48:22.495Z,75.00
2018-08-06T23:50:50.179Z,75.10
2018-08-06T23:53:17.862Z,75.30
2018-08-06T23:55:45.958Z,75.60
